<?xml version="1.0" encoding="UTF-8" standalone="no" ?>
<gpx xmlns="http://www.topografix.com/GPX/1/1" xmlns:xsi="http://www.w3.org/2001/XMLSchema-instance" xsi:schemaLocation="http://www.topografix.com/GPX/1/1 http://www.topografix.com/GPX/1/1/gpx.xsd" version="1.1" creator="VisuGPX - https://www.visugpx.com">
  <metadata>
    <name>barrage Belbezet - Saint Guilhem le Désert</name>
    <desc><![CDATA[2017-06 - barrage Belbezet - Baume de l'Olivier - Saint Guilhem

[b]album[/b] : [url]https://goo.gl/photos/25JEduDyhX4bub1C6[/url]
[img]https://2.bp.blogspot.com/-UuzFBWu4_OE/WU-x76MO5mI/AAAAAAAAVo8/JRt1_gP-fJ0khEX7A1BJfDgLrr5yppMfgCLcBGAs/s1600/2017-06-25_baume-olivier_i.JPG[/img]
[b]Idées de randonnées dans la même région[/b]
Parcours : [url]https://www.visugpx.com/membres/24856/causses/saint-guilhem/[/url]
Photos : [url]https://jcvertygo.blogspot.com/p/saint-guilhem.html[/url]]]></desc>
  </metadata>
  <trk>
    <name><![CDATA[barrage Belbezet - Saint Guilhem le Désert_1]]></name>
    <trkseg>
      <trkpt lat="43.74342" lon="3.56556">
        <ele>70.6</ele>
        <time>2017-06-25T08:44:29Z</time>
      </trkpt>
      <trkpt lat="43.7434" lon="3.56547">
        <ele>70.6</ele>
        <time>2017-06-25T08:44:34Z</time>
      </trkpt>
      <trkpt lat="43.74337" lon="3.56539">
        <ele>69.148615709777</ele>
        <time>2017-06-25T08:44:39Z</time>
      </trkpt>
      <trkpt lat="43.74335" lon="3.56532">
        <ele>69.148615709777</ele>
        <time>2017-06-25T08:44:44Z</time>
      </trkpt>
      <trkpt lat="43.74336" lon="3.56524">
        <ele>69.337157757381</ele>
        <time>2017-06-25T08:44:49Z</time>
      </trkpt>
      <trkpt lat="43.74341" lon="3.56517">
        <ele>69.337157757381</ele>
        <time>2017-06-25T08:44:54Z</time>
      </trkpt>
      <trkpt lat="43.74347" lon="3.56512">
        <ele>69.904490918535</ele>
        <time>2017-06-25T08:44:59Z</time>
      </trkpt>
      <trkpt lat="43.74356" lon="3.56505">
        <ele>70.596750563878</ele>
        <time>2017-06-25T08:45:09Z</time>
      </trkpt>
      <trkpt lat="43.74362" lon="3.565">
        <ele>70.596750563878</ele>
        <time>2017-06-25T08:45:14Z</time>
      </trkpt>
      <trkpt lat="43.74376" lon="3.56492">
        <ele>70.889929266281</ele>
        <time>2017-06-25T08:45:24Z</time>
      </trkpt>
      <trkpt lat="43.7438" lon="3.56489">
        <ele>70.889929266281</ele>
        <time>2017-06-25T08:45:29Z</time>
      </trkpt>
      <trkpt lat="43.74388" lon="3.56479">
        <ele>70.49506053915</ele>
        <time>2017-06-25T08:45:39Z</time>
      </trkpt>
      <trkpt lat="43.74394" lon="3.56473">
        <ele>70.49506053915</ele>
        <time>2017-06-25T08:45:44Z</time>
      </trkpt>
      <trkpt lat="43.74405" lon="3.56458">
        <ele>69.51091732552</ele>
        <time>2017-06-25T08:45:59Z</time>
      </trkpt>
      <trkpt lat="43.74409" lon="3.56453">
        <ele>69.51091732552</ele>
        <time>2017-06-25T08:46:04Z</time>
      </trkpt>
      <trkpt lat="43.74413" lon="3.56445">
        <ele>68.437246087762</ele>
        <time>2017-06-25T08:46:14Z</time>
      </trkpt>
      <trkpt lat="43.74417" lon="3.56422">
        <ele>67.727577669382</ele>
        <time>2017-06-25T08:46:29Z</time>
      </trkpt>
      <trkpt lat="43.74418" lon="3.56415">
        <ele>67.727577669382</ele>
        <time>2017-06-25T08:46:34Z</time>
      </trkpt>
      <trkpt lat="43.74418" lon="3.56404">
        <ele>67.284290551267</ele>
        <time>2017-06-25T08:46:44Z</time>
      </trkpt>
      <trkpt lat="43.74418" lon="3.56403">
        <ele>67.284290551267</ele>
        <time>2017-06-25T08:46:49Z</time>
      </trkpt>
      <trkpt lat="43.74425" lon="3.5639">
        <ele>67.410264727938</ele>
        <time>2017-06-25T08:47:39Z</time>
      </trkpt>
      <trkpt lat="43.74429" lon="3.56373">
        <ele>67.541156536801</ele>
        <time>2017-06-25T08:47:59Z</time>
      </trkpt>
      <trkpt lat="43.74458" lon="3.56326">
        <ele>67.977668330293</ele>
        <time>2017-06-25T08:48:43Z</time>
      </trkpt>
      <trkpt lat="43.74459" lon="3.56326">
        <ele>67.977668330293</ele>
        <time>2017-06-25T08:48:44Z</time>
      </trkpt>
      <trkpt lat="43.74465" lon="3.56324">
        <ele>67.977668330293</ele>
        <time>2017-06-25T08:48:49Z</time>
      </trkpt>
      <trkpt lat="43.74616" lon="3.56337">
        <ele>70.392768111646</ele>
        <time>2017-06-25T08:51:12Z</time>
      </trkpt>
      <trkpt lat="43.74647" lon="3.56296">
        <ele>72.280255849463</ele>
        <time>2017-06-25T08:52:06Z</time>
      </trkpt>
      <trkpt lat="43.74642" lon="3.56288">
        <ele>72.280255849463</ele>
        <time>2017-06-25T08:52:06Z</time>
      </trkpt>
      <trkpt lat="43.74638" lon="3.56264">
        <ele>73.67501501874</ele>
        <time>2017-06-25T08:52:23Z</time>
      </trkpt>
      <trkpt lat="43.74639" lon="3.56227">
        <ele>74.553732487809</ele>
        <time>2017-06-25T08:52:42Z</time>
      </trkpt>
      <trkpt lat="43.74649" lon="3.56209">
        <ele>75.421242302261</ele>
        <time>2017-06-25T08:52:59Z</time>
      </trkpt>
      <trkpt lat="43.74678" lon="3.56173">
        <ele>75.624600469828</ele>
        <time>2017-06-25T08:53:46Z</time>
      </trkpt>
      <trkpt lat="43.74736" lon="3.56108">
        <ele>76.512539382693</ele>
        <time>2017-06-25T08:55:08Z</time>
      </trkpt>
      <trkpt lat="43.74742" lon="3.56107">
        <ele>76.512539382693</ele>
        <time>2017-06-25T08:55:15Z</time>
      </trkpt>
      <trkpt lat="43.74742" lon="3.56108">
        <ele>76.512539382693</ele>
        <time>2017-06-25T08:55:25Z</time>
      </trkpt>
      <trkpt lat="43.74811" lon="3.56096">
        <ele>78.329911160982</ele>
        <time>2017-06-25T08:56:54Z</time>
      </trkpt>
      <trkpt lat="43.74814" lon="3.561">
        <ele>78.329911160982</ele>
        <time>2017-06-25T08:57:04Z</time>
      </trkpt>
      <trkpt lat="43.74854" lon="3.56129">
        <ele>79.87041181516</ele>
        <time>2017-06-25T08:58:23Z</time>
      </trkpt>
      <trkpt lat="43.7486" lon="3.56133">
        <ele>79.87041181516</ele>
        <time>2017-06-25T08:58:23Z</time>
      </trkpt>
      <trkpt lat="43.74994" lon="3.56198">
        <ele>81.507669525928</ele>
        <time>2017-06-25T09:00:44Z</time>
      </trkpt>
      <trkpt lat="43.75001" lon="3.5619">
        <ele>83.007374378088</ele>
        <time>2017-06-25T09:00:54Z</time>
      </trkpt>
      <trkpt lat="43.75012" lon="3.56153">
        <ele>84.995289765748</ele>
        <time>2017-06-25T09:03:40Z</time>
      </trkpt>
      <trkpt lat="43.75019" lon="3.5617">
        <ele>87.447508941598</ele>
        <time>2017-06-25T09:04:43Z</time>
      </trkpt>
      <trkpt lat="43.75014" lon="3.56185">
        <ele>89.660722367883</ele>
        <time>2017-06-25T09:04:54Z</time>
      </trkpt>
      <trkpt lat="43.74932" lon="3.56185">
        <ele>91.487868460427</ele>
        <time>2017-06-25T09:06:33Z</time>
      </trkpt>
      <trkpt lat="43.74921" lon="3.56185">
        <ele>93.089853642496</ele>
        <time>2017-06-25T09:06:33Z</time>
      </trkpt>
      <trkpt lat="43.74919" lon="3.56186">
        <ele>93.089853642496</ele>
        <time>2017-06-25T09:06:42Z</time>
      </trkpt>
      <trkpt lat="43.74907" lon="3.56176">
        <ele>94.304139348716</ele>
        <time>2017-06-25T09:06:50Z</time>
      </trkpt>
      <trkpt lat="43.74829" lon="3.56105">
        <ele>94.897470164306</ele>
        <time>2017-06-25T09:08:34Z</time>
      </trkpt>
      <trkpt lat="43.74809" lon="3.56089">
        <ele>95.069407740655</ele>
        <time>2017-06-25T09:08:52Z</time>
      </trkpt>
      <trkpt lat="43.74806" lon="3.56088">
        <ele>95.069407740655</ele>
        <time>2017-06-25T09:08:54Z</time>
      </trkpt>
      <trkpt lat="43.74761" lon="3.56089">
        <ele>94.641601557234</ele>
        <time>2017-06-25T09:09:42Z</time>
      </trkpt>
      <trkpt lat="43.7475" lon="3.56093">
        <ele>94.141951106244</ele>
        <time>2017-06-25T09:09:42Z</time>
      </trkpt>
      <trkpt lat="43.74707" lon="3.56121">
        <ele>93.520156790914</ele>
        <time>2017-06-25T09:10:34Z</time>
      </trkpt>
      <trkpt lat="43.74638" lon="3.56282">
        <ele>92.393301661773</ele>
        <time>2017-06-25T09:12:49Z</time>
      </trkpt>
      <trkpt lat="43.74643" lon="3.56292">
        <ele>92.393301661773</ele>
        <time>2017-06-25T09:12:54Z</time>
      </trkpt>
      <trkpt lat="43.74643" lon="3.56326">
        <ele>91.063089416489</ele>
        <time>2017-06-25T09:13:15Z</time>
      </trkpt>
      <trkpt lat="43.74625" lon="3.56329">
        <ele>89.716900568277</ele>
        <time>2017-06-25T09:13:35Z</time>
      </trkpt>
      <trkpt lat="43.74553" lon="3.56305">
        <ele>88.433600599402</ele>
        <time>2017-06-25T09:14:44Z</time>
      </trkpt>
      <trkpt lat="43.74474" lon="3.56318">
        <ele>87.159398091181</ele>
        <time>2017-06-25T09:15:47Z</time>
      </trkpt>
      <trkpt lat="43.74473" lon="3.56317">
        <ele>87.159398091181</ele>
        <time>2017-06-25T09:15:47Z</time>
      </trkpt>
      <trkpt lat="43.74457" lon="3.56315">
        <ele>85.829201104753</ele>
        <time>2017-06-25T09:16:00Z</time>
      </trkpt>
      <trkpt lat="43.7442" lon="3.56383">
        <ele>84.017445035746</ele>
        <time>2017-06-25T09:16:49Z</time>
      </trkpt>
      <trkpt lat="43.74434" lon="3.56348">
        <ele>81.615974574689</ele>
        <time>2017-06-25T09:17:38Z</time>
      </trkpt>
      <trkpt lat="43.74435" lon="3.56346">
        <ele>81.615974574689</ele>
        <time>2017-06-25T09:17:39Z</time>
      </trkpt>
      <trkpt lat="43.74445" lon="3.56329">
        <ele>79.027069102815</ele>
        <time>2017-06-25T09:18:01Z</time>
      </trkpt>
      <trkpt lat="43.74446" lon="3.56329">
        <ele>79.027069102815</ele>
        <time>2017-06-25T09:18:01Z</time>
      </trkpt>
      <trkpt lat="43.74451" lon="3.56331">
        <ele>79.027069102815</ele>
        <time>2017-06-25T09:18:08Z</time>
      </trkpt>
      <trkpt lat="43.74466" lon="3.56322">
        <ele>76.261336429881</ele>
        <time>2017-06-25T09:18:20Z</time>
      </trkpt>
      <trkpt lat="43.7447" lon="3.56319">
        <ele>76.261336429881</ele>
        <time>2017-06-25T09:18:24Z</time>
      </trkpt>
      <trkpt lat="43.74507" lon="3.56311">
        <ele>73.091095938136</ele>
        <time>2017-06-25T09:19:03Z</time>
      </trkpt>
      <trkpt lat="43.74546" lon="3.56311">
        <ele>70.575550273556</ele>
        <time>2017-06-25T09:20:26Z</time>
      </trkpt>
      <trkpt lat="43.74579" lon="3.56305">
        <ele>68.472785451152</ele>
        <time>2017-06-25T09:20:49Z</time>
      </trkpt>
      <trkpt lat="43.74618" lon="3.56339">
        <ele>66.673485628691</ele>
        <time>2017-06-25T09:21:36Z</time>
      </trkpt>
      <trkpt lat="43.7464" lon="3.56246">
        <ele>66.459703876661</ele>
        <time>2017-06-25T09:22:52Z</time>
      </trkpt>
      <trkpt lat="43.74723" lon="3.56119">
        <ele>67.021893409576</ele>
        <time>2017-06-25T09:24:49Z</time>
      </trkpt>
      <trkpt lat="43.74768" lon="3.56092">
        <ele>68.147849312621</ele>
        <time>2017-06-25T09:25:37Z</time>
      </trkpt>
      <trkpt lat="43.74775" lon="3.56089">
        <ele>68.147849312621</ele>
        <time>2017-06-25T09:25:39Z</time>
      </trkpt>
      <trkpt lat="43.74793" lon="3.56089">
        <ele>69.607943855101</ele>
        <time>2017-06-25T09:26:07Z</time>
      </trkpt>
      <trkpt lat="43.74825" lon="3.56103">
        <ele>71.158447940874</ele>
        <time>2017-06-25T09:26:41Z</time>
      </trkpt>
      <trkpt lat="43.7489" lon="3.56153">
        <ele>72.921308082438</ele>
        <time>2017-06-25T09:28:07Z</time>
      </trkpt>
      <trkpt lat="43.74896" lon="3.56162">
        <ele>72.921308082438</ele>
        <time>2017-06-25T09:28:07Z</time>
      </trkpt>
      <trkpt lat="43.74923" lon="3.56188">
        <ele>74.797370784386</ele>
        <time>2017-06-25T09:28:45Z</time>
      </trkpt>
      <trkpt lat="43.74927" lon="3.56188">
        <ele>74.797370784386</ele>
        <time>2017-06-25T09:28:49Z</time>
      </trkpt>
      <trkpt lat="43.7499" lon="3.56193">
        <ele>76.770545068478</ele>
        <time>2017-06-25T09:30:07Z</time>
      </trkpt>
      <trkpt lat="43.74994" lon="3.56185">
        <ele>76.770545068478</ele>
        <time>2017-06-25T09:30:07Z</time>
      </trkpt>
      <trkpt lat="43.75002" lon="3.56185">
        <ele>78.691059763217</ele>
        <time>2017-06-25T09:30:24Z</time>
      </trkpt>
      <trkpt lat="43.75021" lon="3.56153">
        <ele>80.616663090891</ele>
        <time>2017-06-25T09:30:48Z</time>
      </trkpt>
      <trkpt lat="43.75021" lon="3.56152">
        <ele>80.616663090891</ele>
        <time>2017-06-25T09:30:49Z</time>
      </trkpt>
      <trkpt lat="43.75023" lon="3.5614">
        <ele>82.436336387808</ele>
        <time>2017-06-25T09:31:10Z</time>
      </trkpt>
      <trkpt lat="43.75023" lon="3.56113">
        <ele>84.257512862116</ele>
        <time>2017-06-25T09:31:54Z</time>
      </trkpt>
      <trkpt lat="43.75035" lon="3.56104">
        <ele>86.00052108397</ele>
        <time>2017-06-25T09:31:54Z</time>
      </trkpt>
      <trkpt lat="43.75046" lon="3.5609">
        <ele>87.78546939747</ele>
        <time>2017-06-25T09:32:09Z</time>
      </trkpt>
      <trkpt lat="43.75046" lon="3.56087">
        <ele>87.78546939747</ele>
        <time>2017-06-25T09:32:19Z</time>
      </trkpt>
      <trkpt lat="43.75037" lon="3.56086">
        <ele>89.485883387729</ele>
        <time>2017-06-25T09:32:38Z</time>
      </trkpt>
      <trkpt lat="43.75053" lon="3.5609">
        <ele>91.192707400847</ele>
        <time>2017-06-25T09:33:00Z</time>
      </trkpt>
      <trkpt lat="43.75052" lon="3.56135">
        <ele>94.534124917709</ele>
        <time>2017-06-25T09:34:17Z</time>
      </trkpt>
      <trkpt lat="43.75123" lon="3.56164">
        <ele>99.575366986647</ele>
        <time>2017-06-25T09:36:16Z</time>
      </trkpt>
      <trkpt lat="43.75129" lon="3.56162">
        <ele>99.575366986647</ele>
        <time>2017-06-25T09:36:16Z</time>
      </trkpt>
      <trkpt lat="43.75145" lon="3.56171">
        <ele>104.55631550694</ele>
        <time>2017-06-25T09:36:33Z</time>
      </trkpt>
      <trkpt lat="43.75157" lon="3.5618">
        <ele>109.42576058143</ele>
        <time>2017-06-25T09:36:43Z</time>
      </trkpt>
      <trkpt lat="43.75158" lon="3.5618">
        <ele>109.42576058143</ele>
        <time>2017-06-25T09:36:44Z</time>
      </trkpt>
      <trkpt lat="43.75179" lon="3.56188">
        <ele>114.64770205532</ele>
        <time>2017-06-25T09:37:46Z</time>
      </trkpt>
      <trkpt lat="43.75287" lon="3.56293">
        <ele>122.9784160993</ele>
        <time>2017-06-25T09:40:43Z</time>
      </trkpt>
      <trkpt lat="43.75288" lon="3.56292">
        <ele>122.9784160993</ele>
        <time>2017-06-25T09:40:44Z</time>
      </trkpt>
      <trkpt lat="43.75293" lon="3.56295">
        <ele>122.9784160993</ele>
        <time>2017-06-25T09:41:00Z</time>
      </trkpt>
      <trkpt lat="43.75357" lon="3.5635">
        <ele>133.99439355481</ele>
        <time>2017-06-25T09:43:05Z</time>
      </trkpt>
      <trkpt lat="43.75365" lon="3.56351">
        <ele>133.99439355481</ele>
        <time>2017-06-25T09:43:05Z</time>
      </trkpt>
      <trkpt lat="43.75376" lon="3.56354">
        <ele>144.30881774887</ele>
        <time>2017-06-25T09:43:25Z</time>
      </trkpt>
      <trkpt lat="43.75391" lon="3.56367">
        <ele>153.84976791831</ele>
        <time>2017-06-25T09:43:40Z</time>
      </trkpt>
      <trkpt lat="43.754" lon="3.56369">
        <ele>162.68308387295</ele>
        <time>2017-06-25T09:43:49Z</time>
      </trkpt>
      <trkpt lat="43.75401" lon="3.56372">
        <ele>162.68308387295</ele>
        <time>2017-06-25T09:43:54Z</time>
      </trkpt>
      <trkpt lat="43.75409" lon="3.5638">
        <ele>170.91457859894</ele>
        <time>2017-06-25T09:44:04Z</time>
      </trkpt>
      <trkpt lat="43.75411" lon="3.56385">
        <ele>170.91457859894</ele>
        <time>2017-06-25T09:44:09Z</time>
      </trkpt>
      <trkpt lat="43.75428" lon="3.56391">
        <ele>178.55665574808</ele>
        <time>2017-06-25T09:44:24Z</time>
      </trkpt>
      <trkpt lat="43.75433" lon="3.56398">
        <ele>178.55665574808</ele>
        <time>2017-06-25T09:44:29Z</time>
      </trkpt>
      <trkpt lat="43.75442" lon="3.56404">
        <ele>185.55009918235</ele>
        <time>2017-06-25T09:44:42Z</time>
      </trkpt>
      <trkpt lat="43.75443" lon="3.56403">
        <ele>185.55009918235</ele>
        <time>2017-06-25T09:44:44Z</time>
      </trkpt>
      <trkpt lat="43.75442" lon="3.56418">
        <ele>191.95754987608</ele>
        <time>2017-06-25T09:45:03Z</time>
      </trkpt>
      <trkpt lat="43.75444" lon="3.5642">
        <ele>191.95754987608</ele>
        <time>2017-06-25T09:45:03Z</time>
      </trkpt>
      <trkpt lat="43.7545" lon="3.56419">
        <ele>191.95754987608</ele>
        <time>2017-06-25T09:45:11Z</time>
      </trkpt>
      <trkpt lat="43.75464" lon="3.5643">
        <ele>197.93969253643</ele>
        <time>2017-06-25T09:45:36Z</time>
      </trkpt>
      <trkpt lat="43.75477" lon="3.56452">
        <ele>203.15590949032</ele>
        <time>2017-06-25T09:45:48Z</time>
      </trkpt>
      <trkpt lat="43.75495" lon="3.56483">
        <ele>207.42325190726</ele>
        <time>2017-06-25T09:46:18Z</time>
      </trkpt>
      <trkpt lat="43.75503" lon="3.56488">
        <ele>211.10887449563</ele>
        <time>2017-06-25T09:46:18Z</time>
      </trkpt>
      <trkpt lat="43.75509" lon="3.56497">
        <ele>211.10887449563</ele>
        <time>2017-06-25T09:46:26Z</time>
      </trkpt>
      <trkpt lat="43.75537" lon="3.56523">
        <ele>214.87182919684</ele>
        <time>2017-06-25T09:47:22Z</time>
      </trkpt>
      <trkpt lat="43.75546" lon="3.56528">
        <ele>218.39981517716</ele>
        <time>2017-06-25T09:47:39Z</time>
      </trkpt>
      <trkpt lat="43.75545" lon="3.56511">
        <ele>221.56329224084</ele>
        <time>2017-06-25T09:48:00Z</time>
      </trkpt>
      <trkpt lat="43.75541" lon="3.56484">
        <ele>225.26732946437</ele>
        <time>2017-06-25T09:48:39Z</time>
      </trkpt>
      <trkpt lat="43.7554" lon="3.56478">
        <ele>225.26732946437</ele>
        <time>2017-06-25T09:49:00Z</time>
      </trkpt>
      <trkpt lat="43.75543" lon="3.56472">
        <ele>228.90758937065</ele>
        <time>2017-06-25T09:49:00Z</time>
      </trkpt>
      <trkpt lat="43.75555" lon="3.56495">
        <ele>233.33768693282</ele>
        <time>2017-06-25T09:50:15Z</time>
      </trkpt>
      <trkpt lat="43.75573" lon="3.56454">
        <ele>237.81838629694</ele>
        <time>2017-06-25T09:51:13Z</time>
      </trkpt>
      <trkpt lat="43.75581" lon="3.56427">
        <ele>242.0109511475</ele>
        <time>2017-06-25T09:52:08Z</time>
      </trkpt>
      <trkpt lat="43.75578" lon="3.56419">
        <ele>242.0109511475</ele>
        <time>2017-06-25T09:52:08Z</time>
      </trkpt>
      <trkpt lat="43.75578" lon="3.56419">
        <ele>242.0109511475</ele>
        <time>2017-06-25T09:52:09Z</time>
      </trkpt>
      <trkpt lat="43.75578" lon="3.56418">
        <ele>242.0109511475</ele>
        <time>2017-06-25T09:52:40Z</time>
      </trkpt>
      <trkpt lat="43.75599" lon="3.56444">
        <ele>247.707964763</ele>
        <time>2017-06-25T09:53:19Z</time>
      </trkpt>
      <trkpt lat="43.75599" lon="3.56444">
        <ele>247.707964763</ele>
        <time>2017-06-25T09:53:19Z</time>
      </trkpt>
      <trkpt lat="43.75598" lon="3.56413">
        <ele>252.96140102176</ele>
        <time>2017-06-25T09:54:00Z</time>
      </trkpt>
      <trkpt lat="43.75594" lon="3.56374">
        <ele>259.89034580188</ele>
        <time>2017-06-25T09:56:08Z</time>
      </trkpt>
      <trkpt lat="43.75599" lon="3.56374">
        <ele>259.89034580188</ele>
        <time>2017-06-25T09:56:09Z</time>
      </trkpt>
      <trkpt lat="43.75612" lon="3.56386">
        <ele>266.57436902242</ele>
        <time>2017-06-25T09:56:39Z</time>
      </trkpt>
      <trkpt lat="43.75635" lon="3.56323">
        <ele>273.3406631707</ele>
        <time>2017-06-25T09:58:00Z</time>
      </trkpt>
      <trkpt lat="43.75656" lon="3.5628">
        <ele>279.6270474901</ele>
        <time>2017-06-25T09:58:34Z</time>
      </trkpt>
      <trkpt lat="43.75657" lon="3.56278">
        <ele>279.6270474901</ele>
        <time>2017-06-25T09:58:39Z</time>
      </trkpt>
      <trkpt lat="43.75658" lon="3.56278">
        <ele>279.6270474901</ele>
        <time>2017-06-25T09:58:44Z</time>
      </trkpt>
      <trkpt lat="43.75657" lon="3.56273">
        <ele>279.6270474901</ele>
        <time>2017-06-25T09:59:24Z</time>
      </trkpt>
      <trkpt lat="43.75654" lon="3.5627">
        <ele>285.67874062358</ele>
        <time>2017-06-25T09:59:29Z</time>
      </trkpt>
      <trkpt lat="43.75639" lon="3.5623">
        <ele>291.4498508772</ele>
        <time>2017-06-25T10:00:17Z</time>
      </trkpt>
      <trkpt lat="43.7564" lon="3.56228">
        <ele>291.4498508772</ele>
        <time>2017-06-25T10:00:26Z</time>
      </trkpt>
      <trkpt lat="43.75644" lon="3.56225">
        <ele>291.4498508772</ele>
        <time>2017-06-25T10:00:26Z</time>
      </trkpt>
      <trkpt lat="43.75651" lon="3.5622">
        <ele>296.78354545733</ele>
        <time>2017-06-25T10:00:37Z</time>
      </trkpt>
      <trkpt lat="43.75652" lon="3.56219">
        <ele>296.78354545733</ele>
        <time>2017-06-25T10:00:37Z</time>
      </trkpt>
      <trkpt lat="43.75653" lon="3.56219">
        <ele>296.78354545733</ele>
        <time>2017-06-25T10:00:39Z</time>
      </trkpt>
      <trkpt lat="43.75672" lon="3.56217">
        <ele>301.98319262968</ele>
        <time>2017-06-25T10:01:12Z</time>
      </trkpt>
      <trkpt lat="43.75674" lon="3.56217">
        <ele>301.98319262968</ele>
        <time>2017-06-25T10:01:14Z</time>
      </trkpt>
      <trkpt lat="43.75677" lon="3.56219">
        <ele>301.98319262968</ele>
        <time>2017-06-25T10:01:17Z</time>
      </trkpt>
      <trkpt lat="43.75711" lon="3.56257">
        <ele>308.2103697971</ele>
        <time>2017-06-25T10:02:35Z</time>
      </trkpt>
      <trkpt lat="43.75724" lon="3.56276">
        <ele>313.61049113749</ele>
        <time>2017-06-25T10:02:39Z</time>
      </trkpt>
      <trkpt lat="43.75733" lon="3.56278">
        <ele>318.60270797224</ele>
        <time>2017-06-25T10:02:59Z</time>
      </trkpt>
      <trkpt lat="43.75772" lon="3.56277">
        <ele>323.56227744611</ele>
        <time>2017-06-25T10:03:51Z</time>
      </trkpt>
      <trkpt lat="43.75778" lon="3.56274">
        <ele>323.56227744611</ele>
        <time>2017-06-25T10:03:51Z</time>
      </trkpt>
      <trkpt lat="43.75803" lon="3.56255">
        <ele>328.50541634885</ele>
        <time>2017-06-25T10:04:39Z</time>
      </trkpt>
      <trkpt lat="43.75809" lon="3.56241">
        <ele>333.02916192268</ele>
        <time>2017-06-25T10:05:16Z</time>
      </trkpt>
      <trkpt lat="43.75816" lon="3.56217">
        <ele>337.0211776182</ele>
        <time>2017-06-25T10:05:16Z</time>
      </trkpt>
      <trkpt lat="43.75769" lon="3.55957">
        <ele>341.70573184956</ele>
        <time>2017-06-25T10:08:45Z</time>
      </trkpt>
      <trkpt lat="43.75757" lon="3.55934">
        <ele>345.76376922575</ele>
        <time>2017-06-25T10:09:08Z</time>
      </trkpt>
      <trkpt lat="43.75746" lon="3.55929">
        <ele>349.22974367065</ele>
        <time>2017-06-25T10:09:08Z</time>
      </trkpt>
      <trkpt lat="43.75702" lon="3.55801">
        <ele>353.24753306663</ele>
        <time>2017-06-25T10:10:56Z</time>
      </trkpt>
      <trkpt lat="43.75693" lon="3.55694">
        <ele>357.13079346861</ele>
        <time>2017-06-25T10:12:34Z</time>
      </trkpt>
      <trkpt lat="43.75687" lon="3.55586">
        <ele>360.2297744942</ele>
        <time>2017-06-25T10:15:18Z</time>
      </trkpt>
      <trkpt lat="43.75689" lon="3.55567">
        <ele>362.55030158968</ele>
        <time>2017-06-25T10:15:45Z</time>
      </trkpt>
      <trkpt lat="43.75685" lon="3.55532">
        <ele>364.20088565793</ele>
        <time>2017-06-25T10:16:27Z</time>
      </trkpt>
      <trkpt lat="43.75682" lon="3.55516">
        <ele>365.28392502958</ele>
        <time>2017-06-25T10:16:34Z</time>
      </trkpt>
      <trkpt lat="43.75676" lon="3.55507">
        <ele>365.28392502958</ele>
        <time>2017-06-25T10:17:08Z</time>
      </trkpt>
      <trkpt lat="43.75672" lon="3.55487">
        <ele>365.56431328251</ele>
        <time>2017-06-25T10:17:39Z</time>
      </trkpt>
      <trkpt lat="43.75674" lon="3.55485">
        <ele>365.56431328251</ele>
        <time>2017-06-25T10:17:49Z</time>
      </trkpt>
      <trkpt lat="43.75677" lon="3.55465">
        <ele>365.14353604451</ele>
        <time>2017-06-25T10:18:33Z</time>
      </trkpt>
      <trkpt lat="43.75676" lon="3.55454">
        <ele>365.14353604451</ele>
        <time>2017-06-25T10:18:35Z</time>
      </trkpt>
      <trkpt lat="43.75677" lon="3.55443">
        <ele>364.37691580714</ele>
        <time>2017-06-25T10:18:43Z</time>
      </trkpt>
      <trkpt lat="43.75677" lon="3.55441">
        <ele>364.37691580714</ele>
        <time>2017-06-25T10:18:51Z</time>
      </trkpt>
      <trkpt lat="43.75677" lon="3.55416">
        <ele>363.24855789829</ele>
        <time>2017-06-25T10:19:06Z</time>
      </trkpt>
      <trkpt lat="43.75677" lon="3.5538">
        <ele>361.78781801031</ele>
        <time>2017-06-25T10:19:41Z</time>
      </trkpt>
      <trkpt lat="43.75676" lon="3.55371">
        <ele>361.78781801031</ele>
        <time>2017-06-25T10:19:41Z</time>
      </trkpt>
      <trkpt lat="43.75674" lon="3.55361">
        <ele>360.13791445588</ele>
        <time>2017-06-25T10:19:50Z</time>
      </trkpt>
      <trkpt lat="43.75634" lon="3.55353">
        <ele>358.15799073561</ele>
        <time>2017-06-25T10:20:31Z</time>
      </trkpt>
      <trkpt lat="43.75618" lon="3.55356">
        <ele>355.99201537028</ele>
        <time>2017-06-25T10:20:48Z</time>
      </trkpt>
      <trkpt lat="43.75602" lon="3.55352">
        <ele>353.61505095039</ele>
        <time>2017-06-25T10:21:53Z</time>
      </trkpt>
      <trkpt lat="43.75559" lon="3.55376">
        <ele>351.24923243295</ele>
        <time>2017-06-25T10:22:27Z</time>
      </trkpt>
      <trkpt lat="43.75496" lon="3.5539">
        <ele>349.02790324276</ele>
        <time>2017-06-25T10:23:50Z</time>
      </trkpt>
      <trkpt lat="43.75484" lon="3.55396">
        <ele>346.7855713575</ele>
        <time>2017-06-25T10:23:50Z</time>
      </trkpt>
      <trkpt lat="43.75464" lon="3.554">
        <ele>344.49823595982</ele>
        <time>2017-06-25T10:24:23Z</time>
      </trkpt>
      <trkpt lat="43.75462" lon="3.55399">
        <ele>344.49823595982</ele>
        <time>2017-06-25T10:24:24Z</time>
      </trkpt>
      <trkpt lat="43.75459" lon="3.55395">
        <ele>344.49823595982</ele>
        <time>2017-06-25T10:24:39Z</time>
      </trkpt>
      <trkpt lat="43.75457" lon="3.55395">
        <ele>344.49823595982</ele>
        <time>2017-06-25T10:24:44Z</time>
      </trkpt>
      <trkpt lat="43.75454" lon="3.55393">
        <ele>342.47479421233</ele>
        <time>2017-06-25T10:24:49Z</time>
      </trkpt>
      <trkpt lat="43.75451" lon="3.55391">
        <ele>342.47479421233</ele>
        <time>2017-06-25T10:24:54Z</time>
      </trkpt>
      <trkpt lat="43.75362" lon="3.55333">
        <ele>339.89057407417</ele>
        <time>2017-06-25T10:27:07Z</time>
      </trkpt>
      <trkpt lat="43.7536" lon="3.55328">
        <ele>339.89057407417</ele>
        <time>2017-06-25T10:27:07Z</time>
      </trkpt>
      <trkpt lat="43.75358" lon="3.55323">
        <ele>339.89057407417</ele>
        <time>2017-06-25T10:27:23Z</time>
      </trkpt>
      <trkpt lat="43.75354" lon="3.55315">
        <ele>337.12106238895</ele>
        <time>2017-06-25T10:27:23Z</time>
      </trkpt>
      <trkpt lat="43.75326" lon="3.55242">
        <ele>333.15952104978</ele>
        <time>2017-06-25T10:29:04Z</time>
      </trkpt>
      <trkpt lat="43.75326" lon="3.55241">
        <ele>333.15952104978</ele>
        <time>2017-06-25T10:29:09Z</time>
      </trkpt>
      <trkpt lat="43.75268" lon="3.55218">
        <ele>328.79092982775</ele>
        <time>2017-06-25T10:30:45Z</time>
      </trkpt>
      <trkpt lat="43.75268" lon="3.55219">
        <ele>328.79092982775</ele>
        <time>2017-06-25T10:30:45Z</time>
      </trkpt>
      <trkpt lat="43.75239" lon="3.55249">
        <ele>324.02264479744</ele>
        <time>2017-06-25T10:32:39Z</time>
      </trkpt>
      <trkpt lat="43.75236" lon="3.5526">
        <ele>319.38085249323</ele>
        <time>2017-06-25T10:34:36Z</time>
      </trkpt>
      <trkpt lat="43.75237" lon="3.55253">
        <ele>319.38085249323</ele>
        <time>2017-06-25T10:37:34Z</time>
      </trkpt>
      <trkpt lat="43.75194" lon="3.55261">
        <ele>315.15039824513</ele>
        <time>2017-06-25T10:38:27Z</time>
      </trkpt>
      <trkpt lat="43.75189" lon="3.55264">
        <ele>315.15039824513</ele>
        <time>2017-06-25T10:38:27Z</time>
      </trkpt>
      <trkpt lat="43.75177" lon="3.55267">
        <ele>311.29081906228</ele>
        <time>2017-06-25T10:39:57Z</time>
      </trkpt>
      <trkpt lat="43.75093" lon="3.55222">
        <ele>307.84944859042</ele>
        <time>2017-06-25T10:41:32Z</time>
      </trkpt>
      <trkpt lat="43.75093" lon="3.5522">
        <ele>307.84944859042</ele>
        <time>2017-06-25T10:41:34Z</time>
      </trkpt>
      <trkpt lat="43.75092" lon="3.55197">
        <ele>304.60895556811</ele>
        <time>2017-06-25T10:42:06Z</time>
      </trkpt>
      <trkpt lat="43.75091" lon="3.55191">
        <ele>304.60895556811</ele>
        <time>2017-06-25T10:42:06Z</time>
      </trkpt>
      <trkpt lat="43.75089" lon="3.55188">
        <ele>304.60895556811</ele>
        <time>2017-06-25T10:42:25Z</time>
      </trkpt>
      <trkpt lat="43.75096" lon="3.55177">
        <ele>301.41003383058</ele>
        <time>2017-06-25T10:43:25Z</time>
      </trkpt>
      <trkpt lat="43.75074" lon="3.55141">
        <ele>298.47905430195</ele>
        <time>2017-06-25T10:45:00Z</time>
      </trkpt>
      <trkpt lat="43.75063" lon="3.55127">
        <ele>295.69294416567</ele>
        <time>2017-06-25T10:45:17Z</time>
      </trkpt>
      <trkpt lat="43.75063" lon="3.55125">
        <ele>295.69294416567</ele>
        <time>2017-06-25T10:45:25Z</time>
      </trkpt>
      <trkpt lat="43.75064" lon="3.55122">
        <ele>295.69294416567</ele>
        <time>2017-06-25T10:45:25Z</time>
      </trkpt>
      <trkpt lat="43.75064" lon="3.55122">
        <ele>295.69294416567</ele>
        <time>2017-06-25T10:45:34Z</time>
      </trkpt>
      <trkpt lat="43.75077" lon="3.55103">
        <ele>292.61962145757</ele>
        <time>2017-06-25T10:48:16Z</time>
      </trkpt>
      <trkpt lat="43.7507" lon="3.55112">
        <ele>289.88218615956</ele>
        <time>2017-06-25T10:48:26Z</time>
      </trkpt>
      <trkpt lat="43.75069" lon="3.55119">
        <ele>289.88218615956</ele>
        <time>2017-06-25T10:49:19Z</time>
      </trkpt>
      <trkpt lat="43.75071" lon="3.55105">
        <ele>287.40793889397</ele>
        <time>2017-06-25T10:49:59Z</time>
      </trkpt>
      <trkpt lat="43.75077" lon="3.55097">
        <ele>287.40793889397</ele>
        <time>2017-06-25T10:50:14Z</time>
      </trkpt>
      <trkpt lat="43.75071" lon="3.55107">
        <ele>285.22911033326</ele>
        <time>2017-06-25T10:50:19Z</time>
      </trkpt>
      <trkpt lat="43.74993" lon="3.55029">
        <ele>282.4374517765</ele>
        <time>2017-06-25T10:53:09Z</time>
      </trkpt>
      <trkpt lat="43.74988" lon="3.55025">
        <ele>282.4374517765</ele>
        <time>2017-06-25T10:53:09Z</time>
      </trkpt>
      <trkpt lat="43.74988" lon="3.55025">
        <ele>282.4374517765</ele>
        <time>2017-06-25T10:53:10Z</time>
      </trkpt>
      <trkpt lat="43.74985" lon="3.55026">
        <ele>279.84995532361</ele>
        <time>2017-06-25T10:54:29Z</time>
      </trkpt>
      <trkpt lat="43.74989" lon="3.55023">
        <ele>279.84995532361</ele>
        <time>2017-06-25T10:54:47Z</time>
      </trkpt>
      <trkpt lat="43.74989" lon="3.55021">
        <ele>279.84995532361</ele>
        <time>2017-06-25T10:54:49Z</time>
      </trkpt>
      <trkpt lat="43.74989" lon="3.55001">
        <ele>276.73813823482</ele>
        <time>2017-06-25T10:55:10Z</time>
      </trkpt>
      <trkpt lat="43.7499" lon="3.55001">
        <ele>276.73813823482</ele>
        <time>2017-06-25T10:55:26Z</time>
      </trkpt>
      <trkpt lat="43.74993" lon="3.54989">
        <ele>273.89798534974</ele>
        <time>2017-06-25T10:55:26Z</time>
      </trkpt>
      <trkpt lat="43.75001" lon="3.54974">
        <ele>271.41725695982</ele>
        <time>2017-06-25T10:55:41Z</time>
      </trkpt>
      <trkpt lat="43.74941" lon="3.54954">
        <ele>269.31815708341</ele>
        <time>2017-06-25T10:57:14Z</time>
      </trkpt>
      <trkpt lat="43.74937" lon="3.54953">
        <ele>269.31815708341</ele>
        <time>2017-06-25T10:57:19Z</time>
      </trkpt>
      <trkpt lat="43.74872" lon="3.54893">
        <ele>268.10973949766</ele>
        <time>2017-06-25T10:58:44Z</time>
      </trkpt>
      <trkpt lat="43.74867" lon="3.54891">
        <ele>268.10973949766</ele>
        <time>2017-06-25T10:58:49Z</time>
      </trkpt>
      <trkpt lat="43.74798" lon="3.54897">
        <ele>268.60662419731</ele>
        <time>2017-06-25T11:00:26Z</time>
      </trkpt>
      <trkpt lat="43.74789" lon="3.54895">
        <ele>268.60662419731</ele>
        <time>2017-06-25T11:00:26Z</time>
      </trkpt>
      <trkpt lat="43.74764" lon="3.54882">
        <ele>269.74259317669</ele>
        <time>2017-06-25T11:00:54Z</time>
      </trkpt>
      <trkpt lat="43.74724" lon="3.54893">
        <ele>271.27701327285</ele>
        <time>2017-06-25T11:01:37Z</time>
      </trkpt>
      <trkpt lat="43.74718" lon="3.54896">
        <ele>271.27701327285</ele>
        <time>2017-06-25T11:01:37Z</time>
      </trkpt>
      <trkpt lat="43.74658" lon="3.54911">
        <ele>272.72610903467</ele>
        <time>2017-06-25T11:02:39Z</time>
      </trkpt>
      <trkpt lat="43.74649" lon="3.54915">
        <ele>274.07396771165</ele>
        <time>2017-06-25T11:02:54Z</time>
      </trkpt>
      <trkpt lat="43.74582" lon="3.54871">
        <ele>275.00327902033</ele>
        <time>2017-06-25T11:04:59Z</time>
      </trkpt>
      <trkpt lat="43.74521" lon="3.54794">
        <ele>274.08255100774</ele>
        <time>2017-06-25T11:06:50Z</time>
      </trkpt>
      <trkpt lat="43.74522" lon="3.54788">
        <ele>274.08255100774</ele>
        <time>2017-06-25T11:06:56Z</time>
      </trkpt>
      <trkpt lat="43.74519" lon="3.54721">
        <ele>272.52687074882</ele>
        <time>2017-06-25T11:07:50Z</time>
      </trkpt>
      <trkpt lat="43.74504" lon="3.547">
        <ele>270.80079641231</ele>
        <time>2017-06-25T11:08:15Z</time>
      </trkpt>
      <trkpt lat="43.745" lon="3.54693">
        <ele>270.80079641231</ele>
        <time>2017-06-25T11:08:15Z</time>
      </trkpt>
      <trkpt lat="43.74441" lon="3.54677">
        <ele>268.1245787242</ele>
        <time>2017-06-25T11:10:19Z</time>
      </trkpt>
      <trkpt lat="43.74424" lon="3.54698">
        <ele>266.1849752769</ele>
        <time>2017-06-25T11:10:49Z</time>
      </trkpt>
      <trkpt lat="43.74421" lon="3.54699">
        <ele>266.1849752769</ele>
        <time>2017-06-25T11:11:14Z</time>
      </trkpt>
      <trkpt lat="43.74401" lon="3.54685">
        <ele>264.89978702293</ele>
        <time>2017-06-25T11:11:46Z</time>
      </trkpt>
      <trkpt lat="43.74398" lon="3.54681">
        <ele>264.89978702293</ele>
        <time>2017-06-25T11:11:47Z</time>
      </trkpt>
      <trkpt lat="43.74342" lon="3.5465">
        <ele>264.95471568825</ele>
        <time>2017-06-25T11:12:51Z</time>
      </trkpt>
      <trkpt lat="43.743" lon="3.54636">
        <ele>265.41043365821</ele>
        <time>2017-06-25T11:13:34Z</time>
      </trkpt>
      <trkpt lat="43.74295" lon="3.54633">
        <ele>265.41043365821</ele>
        <time>2017-06-25T11:13:34Z</time>
      </trkpt>
      <trkpt lat="43.74257" lon="3.54625">
        <ele>266.38979966201</ele>
        <time>2017-06-25T11:14:20Z</time>
      </trkpt>
      <trkpt lat="43.74209" lon="3.54612">
        <ele>267.86102647621</ele>
        <time>2017-06-25T11:15:16Z</time>
      </trkpt>
      <trkpt lat="43.74147" lon="3.5453">
        <ele>269.77885729983</ele>
        <time>2017-06-25T11:17:12Z</time>
      </trkpt>
      <trkpt lat="43.7415" lon="3.54502">
        <ele>271.01928497913</ele>
        <time>2017-06-25T11:17:24Z</time>
      </trkpt>
      <trkpt lat="43.74151" lon="3.54498">
        <ele>271.01928497913</ele>
        <time>2017-06-25T11:17:39Z</time>
      </trkpt>
      <trkpt lat="43.74152" lon="3.54493">
        <ele>271.01928497913</ele>
        <time>2017-06-25T11:17:44Z</time>
      </trkpt>
      <trkpt lat="43.74152" lon="3.54479">
        <ele>271.53717796131</ele>
        <time>2017-06-25T11:18:04Z</time>
      </trkpt>
      <trkpt lat="43.74151" lon="3.54474">
        <ele>271.53717796131</ele>
        <time>2017-06-25T11:18:09Z</time>
      </trkpt>
      <trkpt lat="43.74142" lon="3.5444">
        <ele>271.97012909049</ele>
        <time>2017-06-25T11:18:34Z</time>
      </trkpt>
      <trkpt lat="43.74138" lon="3.54409">
        <ele>272.4192308384</ele>
        <time>2017-06-25T11:18:49Z</time>
      </trkpt>
      <trkpt lat="43.7411" lon="3.54352">
        <ele>271.14797955115</ele>
        <time>2017-06-25T11:21:00Z</time>
      </trkpt>
      <trkpt lat="43.7408" lon="3.54413">
        <ele>268.75725417221</ele>
        <time>2017-06-25T11:22:07Z</time>
      </trkpt>
      <trkpt lat="43.74077" lon="3.54424">
        <ele>268.75725417221</ele>
        <time>2017-06-25T11:22:07Z</time>
      </trkpt>
      <trkpt lat="43.7402" lon="3.54535">
        <ele>263.09772787728</ele>
        <time>2017-06-25T11:24:25Z</time>
      </trkpt>
      <trkpt lat="43.73941" lon="3.54678">
        <ele>256.4961233585</ele>
        <time>2017-06-25T11:25:56Z</time>
      </trkpt>
      <trkpt lat="43.73941" lon="3.54679">
        <ele>256.4961233585</ele>
        <time>2017-06-25T11:25:57Z</time>
      </trkpt>
      <trkpt lat="43.73934" lon="3.54692">
        <ele>250.40477860077</ele>
        <time>2017-06-25T11:26:44Z</time>
      </trkpt>
      <trkpt lat="43.73931" lon="3.54697">
        <ele>250.40477860077</ele>
        <time>2017-06-25T11:27:04Z</time>
      </trkpt>
      <trkpt lat="43.73928" lon="3.54702">
        <ele>244.84209110041</ele>
        <time>2017-06-25T11:27:09Z</time>
      </trkpt>
      <trkpt lat="43.73915" lon="3.54711">
        <ele>239.79476720833</ele>
        <time>2017-06-25T11:27:26Z</time>
      </trkpt>
      <trkpt lat="43.73906" lon="3.5473">
        <ele>235.23456744569</ele>
        <time>2017-06-25T11:28:06Z</time>
      </trkpt>
      <trkpt lat="43.73903" lon="3.54741">
        <ele>235.23456744569</ele>
        <time>2017-06-25T11:28:08Z</time>
      </trkpt>
      <trkpt lat="43.73888" lon="3.54768">
        <ele>230.90329211166</ele>
        <time>2017-06-25T11:29:18Z</time>
      </trkpt>
      <trkpt lat="43.73874" lon="3.5478">
        <ele>226.95005782757</ele>
        <time>2017-06-25T11:29:25Z</time>
      </trkpt>
      <trkpt lat="43.73872" lon="3.54784">
        <ele>226.95005782757</ele>
        <time>2017-06-25T11:29:30Z</time>
      </trkpt>
      <trkpt lat="43.73862" lon="3.54802">
        <ele>223.31008812833</ele>
        <time>2017-06-25T11:29:42Z</time>
      </trkpt>
      <trkpt lat="43.73853" lon="3.54821">
        <ele>219.9223536959</ele>
        <time>2017-06-25T11:29:59Z</time>
      </trkpt>
      <trkpt lat="43.73844" lon="3.54831">
        <ele>216.78710677177</ele>
        <time>2017-06-25T11:30:17Z</time>
      </trkpt>
      <trkpt lat="43.73844" lon="3.54833">
        <ele>216.78710677177</ele>
        <time>2017-06-25T11:30:24Z</time>
      </trkpt>
      <trkpt lat="43.73834" lon="3.54853">
        <ele>213.84608692282</ele>
        <time>2017-06-25T11:30:45Z</time>
      </trkpt>
      <trkpt lat="43.73832" lon="3.54858">
        <ele>213.84608692282</ele>
        <time>2017-06-25T11:30:45Z</time>
      </trkpt>
      <trkpt lat="43.73825" lon="3.54869">
        <ele>211.05903821364</ele>
        <time>2017-06-25T11:31:00Z</time>
      </trkpt>
      <trkpt lat="43.73804" lon="3.54898">
        <ele>208.15751188988</ele>
        <time>2017-06-25T11:31:39Z</time>
      </trkpt>
      <trkpt lat="43.73793" lon="3.54894">
        <ele>204.84972901276</ele>
        <time>2017-06-25T11:32:45Z</time>
      </trkpt>
      <trkpt lat="43.73792" lon="3.54889">
        <ele>204.84972901276</ele>
        <time>2017-06-25T11:32:45Z</time>
      </trkpt>
      <trkpt lat="43.73782" lon="3.54867">
        <ele>200.95281398676</ele>
        <time>2017-06-25T11:34:24Z</time>
      </trkpt>
      <trkpt lat="43.73785" lon="3.5486">
        <ele>200.95281398676</ele>
        <time>2017-06-25T11:34:24Z</time>
      </trkpt>
      <trkpt lat="43.73791" lon="3.54839">
        <ele>197.26438638954</ele>
        <time>2017-06-25T11:34:44Z</time>
      </trkpt>
      <trkpt lat="43.73792" lon="3.54828">
        <ele>197.26438638954</ele>
        <time>2017-06-25T11:34:49Z</time>
      </trkpt>
      <trkpt lat="43.73793" lon="3.54814">
        <ele>193.81660509549</ele>
        <time>2017-06-25T11:35:05Z</time>
      </trkpt>
      <trkpt lat="43.73793" lon="3.54812">
        <ele>193.81660509549</ele>
        <time>2017-06-25T11:35:05Z</time>
      </trkpt>
      <trkpt lat="43.73776" lon="3.54763">
        <ele>189.4279159121</ele>
        <time>2017-06-25T11:36:14Z</time>
      </trkpt>
      <trkpt lat="43.73775" lon="3.54774">
        <ele>189.4279159121</ele>
        <time>2017-06-25T11:36:14Z</time>
      </trkpt>
      <trkpt lat="43.7376" lon="3.54822">
        <ele>184.83626853575</ele>
        <time>2017-06-25T11:37:00Z</time>
      </trkpt>
      <trkpt lat="43.73757" lon="3.54825">
        <ele>184.83626853575</ele>
        <time>2017-06-25T11:37:00Z</time>
      </trkpt>
      <trkpt lat="43.7373" lon="3.54839">
        <ele>179.16941956918</ele>
        <time>2017-06-25T11:37:51Z</time>
      </trkpt>
      <trkpt lat="43.73719" lon="3.54862">
        <ele>172.83258929842</ele>
        <time>2017-06-25T11:38:19Z</time>
      </trkpt>
      <trkpt lat="43.73716" lon="3.54864">
        <ele>172.83258929842</ele>
        <time>2017-06-25T11:38:20Z</time>
      </trkpt>
      <trkpt lat="43.73707" lon="3.54874">
        <ele>166.73614688261</ele>
        <time>2017-06-25T11:38:34Z</time>
      </trkpt>
      <trkpt lat="43.73707" lon="3.54875">
        <ele>166.73614688261</ele>
        <time>2017-06-25T11:38:34Z</time>
      </trkpt>
      <trkpt lat="43.73694" lon="3.54883">
        <ele>160.829232365</ele>
        <time>2017-06-25T11:38:51Z</time>
      </trkpt>
      <trkpt lat="43.73692" lon="3.54884">
        <ele>160.829232365</ele>
        <time>2017-06-25T11:38:52Z</time>
      </trkpt>
      <trkpt lat="43.73679" lon="3.54886">
        <ele>154.91987404864</ele>
        <time>2017-06-25T11:39:15Z</time>
      </trkpt>
      <trkpt lat="43.73671" lon="3.54887">
        <ele>154.91987404864</ele>
        <time>2017-06-25T11:39:15Z</time>
      </trkpt>
      <trkpt lat="43.73639" lon="3.54892">
        <ele>148.61382327851</ele>
        <time>2017-06-25T11:39:51Z</time>
      </trkpt>
      <trkpt lat="43.7362" lon="3.54883">
        <ele>141.95018498113</ele>
        <time>2017-06-25T11:40:35Z</time>
      </trkpt>
      <trkpt lat="43.73613" lon="3.54873">
        <ele>135.78738513896</ele>
        <time>2017-06-25T11:40:35Z</time>
      </trkpt>
      <trkpt lat="43.73467" lon="3.54899">
        <ele>127.56133642412</ele>
        <time>2017-06-25T11:43:04Z</time>
      </trkpt>
      <trkpt lat="43.73449" lon="3.54909">
        <ele>119.57102673126</ele>
        <time>2017-06-25T11:43:40Z</time>
      </trkpt>
      <trkpt lat="43.73413" lon="3.54936">
        <ele>111.91364384591</ele>
        <time>2017-06-25T11:44:49Z</time>
      </trkpt>
      <trkpt lat="43.73407" lon="3.5495">
        <ele>105.08151051057</ele>
        <time>2017-06-25T11:44:49Z</time>
      </trkpt>
      <trkpt lat="43.73392" lon="3.54974">
        <ele>98.937297584953</ele>
        <time>2017-06-25T11:45:15Z</time>
      </trkpt>
      <trkpt lat="43.73386" lon="3.54982">
        <ele>98.937297584953</ele>
        <time>2017-06-25T11:45:16Z</time>
      </trkpt>
      <trkpt lat="43.7338" lon="3.55006">
        <ele>93.337102328093</ele>
        <time>2017-06-25T11:45:29Z</time>
      </trkpt>
      <trkpt lat="43.73384" lon="3.55104">
        <ele>87.626945632429</ele>
        <time>2017-06-25T11:46:29Z</time>
      </trkpt>
      <trkpt lat="43.73386" lon="3.5511">
        <ele>87.626945632429</ele>
        <time>2017-06-25T11:46:34Z</time>
      </trkpt>
      <trkpt lat="43.73382" lon="3.55158">
        <ele>82.180837567485</ele>
        <time>2017-06-25T11:47:04Z</time>
      </trkpt>
      <trkpt lat="43.73382" lon="3.55212">
        <ele>77.128097947784</ele>
        <time>2017-06-25T11:47:39Z</time>
      </trkpt>
      <trkpt lat="43.73371" lon="3.55249">
        <ele>72.615968356374</ele>
        <time>2017-06-25T11:48:02Z</time>
      </trkpt>
      <trkpt lat="43.73334" lon="3.55342">
        <ele>68.346740184522</ele>
        <time>2017-06-25T11:49:03Z</time>
      </trkpt>
      <trkpt lat="43.73334" lon="3.55343">
        <ele>68.346740184522</ele>
        <time>2017-06-25T11:49:03Z</time>
      </trkpt>
      <trkpt lat="43.73329" lon="3.5535">
        <ele>68.346740184522</ele>
        <time>2017-06-25T11:49:08Z</time>
      </trkpt>
      <trkpt lat="43.73328" lon="3.55351">
        <ele>64.692126251151</ele>
        <time>2017-06-25T11:49:11Z</time>
      </trkpt>
      <trkpt lat="43.7333" lon="3.55382">
        <ele>61.274006308084</ele>
        <time>2017-06-25T11:49:39Z</time>
      </trkpt>
      <trkpt lat="43.73337" lon="3.55391">
        <ele>58.375237781488</ele>
        <time>2017-06-25T11:49:42Z</time>
      </trkpt>
      <trkpt lat="43.73427" lon="3.55459">
        <ele>56.875922902249</ele>
        <time>2017-06-25T11:51:04Z</time>
      </trkpt>
      <trkpt lat="43.73492" lon="3.55502">
        <ele>55.569862058855</ele>
        <time>2017-06-25T11:52:10Z</time>
      </trkpt>
      <trkpt lat="43.73511" lon="3.55519">
        <ele>54.635786262042</ele>
        <time>2017-06-25T11:52:27Z</time>
      </trkpt>
      <trkpt lat="43.7352" lon="3.55527">
        <ele>54.108455252668</ele>
        <time>2017-06-25T11:52:27Z</time>
      </trkpt>
      <trkpt lat="43.73553" lon="3.5556">
        <ele>53.528895431432</ele>
        <time>2017-06-25T11:53:08Z</time>
      </trkpt>
      <trkpt lat="43.73604" lon="3.55611">
        <ele>53.206938571967</ele>
        <time>2017-06-25T11:53:59Z</time>
      </trkpt>
      <trkpt lat="43.73688" lon="3.5567">
        <ele>52.852500663765</ele>
        <time>2017-06-25T11:55:01Z</time>
      </trkpt>
      <trkpt lat="43.73709" lon="3.55681">
        <ele>52.903089052929</ele>
        <time>2017-06-25T11:55:22Z</time>
      </trkpt>
      <trkpt lat="43.73714" lon="3.55685">
        <ele>52.903089052929</ele>
        <time>2017-06-25T11:55:22Z</time>
      </trkpt>
      <trkpt lat="43.73846" lon="3.55748">
        <ele>53.575671179152</ele>
        <time>2017-06-25T11:57:17Z</time>
      </trkpt>
      <trkpt lat="43.73858" lon="3.55757">
        <ele>54.392321813109</ele>
        <time>2017-06-25T11:57:17Z</time>
      </trkpt>
      <trkpt lat="43.73969" lon="3.55859">
        <ele>54.866731228016</ele>
        <time>2017-06-25T11:58:59Z</time>
      </trkpt>
      <trkpt lat="43.73989" lon="3.55876">
        <ele>55.529405646695</ele>
        <time>2017-06-25T11:59:23Z</time>
      </trkpt>
      <trkpt lat="43.73998" lon="3.55879">
        <ele>55.529405646695</ele>
        <time>2017-06-25T11:59:23Z</time>
      </trkpt>
      <trkpt lat="43.74021" lon="3.559">
        <ele>55.934834105242</ele>
        <time>2017-06-25T11:59:51Z</time>
      </trkpt>
      <trkpt lat="43.74028" lon="3.55904">
        <ele>55.934834105242</ele>
        <time>2017-06-25T11:59:52Z</time>
      </trkpt>
      <trkpt lat="43.74039" lon="3.5591">
        <ele>56.233216960484</ele>
        <time>2017-06-25T12:00:09Z</time>
      </trkpt>
      <trkpt lat="43.74051" lon="3.55915">
        <ele>56.650738846138</ele>
        <time>2017-06-25T12:00:09Z</time>
      </trkpt>
      <trkpt lat="43.74063" lon="3.55915">
        <ele>57.368083017688</ele>
        <time>2017-06-25T12:00:26Z</time>
      </trkpt>
      <trkpt lat="43.74074" lon="3.55913">
        <ele>58.263884522518</ele>
        <time>2017-06-25T12:00:26Z</time>
      </trkpt>
      <trkpt lat="43.74098" lon="3.55915">
        <ele>60.479267122445</ele>
        <time>2017-06-25T12:00:47Z</time>
      </trkpt>
      <trkpt lat="43.74103" lon="3.55914">
        <ele>60.479267122445</ele>
        <time>2017-06-25T12:00:52Z</time>
      </trkpt>
      <trkpt lat="43.74153" lon="3.55906">
        <ele>63.727920389797</ele>
        <time>2017-06-25T12:01:34Z</time>
      </trkpt>
      <trkpt lat="43.74153" lon="3.55902">
        <ele>63.727920389797</ele>
        <time>2017-06-25T12:01:34Z</time>
      </trkpt>
      <trkpt lat="43.74154" lon="3.55903">
        <ele>63.727920389797</ele>
        <time>2017-06-25T12:06:50Z</time>
      </trkpt>
      <trkpt lat="43.74169" lon="3.55903">
        <ele>65.493881703196</ele>
        <time>2017-06-25T12:07:14Z</time>
      </trkpt>
      <trkpt lat="43.74176" lon="3.55903">
        <ele>65.493881703196</ele>
        <time>2017-06-25T12:07:19Z</time>
      </trkpt>
      <trkpt lat="43.74237" lon="3.55924">
        <ele>67.168606527349</ele>
        <time>2017-06-25T12:08:16Z</time>
      </trkpt>
      <trkpt lat="43.74247" lon="3.55931">
        <ele>68.788211783458</ele>
        <time>2017-06-25T12:08:16Z</time>
      </trkpt>
      <trkpt lat="43.74269" lon="3.55947">
        <ele>70.444362974451</ele>
        <time>2017-06-25T12:08:34Z</time>
      </trkpt>
      <trkpt lat="43.74361" lon="3.56046">
        <ele>71.73232323944</ele>
        <time>2017-06-25T12:10:10Z</time>
      </trkpt>
      <trkpt lat="43.74403" lon="3.56113">
        <ele>73.244083992221</ele>
        <time>2017-06-25T12:10:56Z</time>
      </trkpt>
      <trkpt lat="43.74408" lon="3.56128">
        <ele>74.648866726904</ele>
        <time>2017-06-25T12:10:56Z</time>
      </trkpt>
      <trkpt lat="43.7442" lon="3.56171">
        <ele>76.030017888672</ele>
        <time>2017-06-25T12:11:24Z</time>
      </trkpt>
      <trkpt lat="43.74429" lon="3.56194">
        <ele>77.277909509115</ele>
        <time>2017-06-25T12:11:38Z</time>
      </trkpt>
      <trkpt lat="43.74429" lon="3.56197">
        <ele>77.277909509115</ele>
        <time>2017-06-25T12:11:38Z</time>
      </trkpt>
      <trkpt lat="43.74435" lon="3.56237">
        <ele>78.450288238474</ele>
        <time>2017-06-25T12:12:47Z</time>
      </trkpt>
      <trkpt lat="43.74428" lon="3.56361">
        <ele>80.235383157905</ele>
        <time>2017-06-25T12:13:17Z</time>
      </trkpt>
      <trkpt lat="43.74427" lon="3.56377">
        <ele>81.886101057053</ele>
        <time>2017-06-25T12:13:17Z</time>
      </trkpt>
      <trkpt lat="43.744" lon="3.56467">
        <ele>83.244235091015</ele>
        <time>2017-06-25T12:14:26Z</time>
      </trkpt>
      <trkpt lat="43.74347" lon="3.56523">
        <ele>84.178844241027</ele>
        <time>2017-06-25T12:15:17Z</time>
      </trkpt>
      <trkpt lat="43.74349" lon="3.56573">
        <ele>84.988122380001</ele>
        <time>2017-06-25T12:15:43Z</time>
      </trkpt>
      <trkpt lat="43.74352" lon="3.56583">
        <ele>84.988122380001</ele>
        <time>2017-06-25T12:15:43Z</time>
      </trkpt>
      <trkpt lat="43.74342" lon="3.56587">
        <ele>85.415894254179</ele>
        <time>2017-06-25T12:16:16Z</time>
      </trkpt>
    </trkseg>
  </trk>
</gpx>